sensor_id;sensor_type;location;lat;lon;timestamp;temperature;humidity
76789;DHT22;65740;52.464;13.446;2023-04-29T00:00:37;20.80;46.20
76789;DHT22;65740;52.464;13.446;2023-04-29T00:03:03;20.70;46.20
76789;DHT22;65740;52.464;13.446;2023-04-29T00:05:28;20.70;46.20
76789;DHT22;65740;52.464;13.446;2023-04-29T00:07:54;20.80;46.30
76789;DHT22;65740;52.464;13.446;2023-04-29T00:10:19;20.70;46.10
76789;DHT22;65740;52.464;13.446;2023-04-29T00:12:45;20.70;46.30
76789;DHT22;65740;52.464;13.446;2023-04-29T00:15:11;20.70;46.20
76789;DHT22;65740;52.464;13.446;2023-04-29T00:17:36;20.70;46.20
76789;DHT22;65740;52.464;13.446;2023-04-29T00:20:02;20.70;46.20
76789;DHT22;65740;52.464;13.446;2023-04-29T00:22:28;20.70;46.20
76789;DHT22;65740;52.464;13.446;2023-04-29T00:24:54;20.70;46.20
76789;DHT22;65740;52.464;13.446;2023-04-29T00:27:20;20.60;46.20
76789;DHT22;65740;52.464;13.446;2023-04-29T00:29:45;20.60;46.20
76789;DHT22;65740;52.464;13.446;2023-04-29T00:32:11;20.60;46.20
76789;DHT22;65740;52.464;13.446;2023-04-29T00:34:37;20.60;46.20
76789;DHT22;65740;52.464;13.446;2023-04-29T00:37:02;20.60;46.20
76789;DHT22;65740;52.464;13.446;2023-04-29T00:39:28;20.60;46.20
76789;DHT22;65740;52.464;13.446;2023-04-29T00:41:54;20.60;46.20
76789;DHT22;65740;52.464;13.446;2023-04-29T00:44:20;20.60;46.20
76789;DHT22;65740;52.464;13.446;2023-04-29T00:46:46;20.60;46.20
76789;DHT22;65740;52.464;13.446;2023-04-29T00:49:12;20.60;46.10
76789;DHT22;65740;52.464;13.446;2023-04-29T00:51:39;20.60;46.10
76789;DHT22;65740;52.464;13.446;2023-04-29T00:54:06;20.60;46.00
76789;DHT22;65740;52.464;13.446;2023-04-29T00:56:34;20.60;46.00
76789;DHT22;65740;52.464;13.446;2023-04-29T00:59:01;20.60;45.80
76789;DHT22;65740;52.464;13.446;2023-04-29T01:01:28;20.60;45.90
76789;DHT22;65740;52.464;13.446;2023-04-29T01:03:54;20.60;45.80
76789;DHT22;65740;52.464;13.446;2023-04-29T01:12:14;20.70;46.40
76789;DHT22;65740;52.464;13.446;2023-04-29T01:14:52;20.60;45.60
76789;DHT22;65740;52.464;13.446;2023-04-29T01:17:21;20.70;45.60
76789;DHT22;65740;52.464;13.446;2023-04-29T01:19:53;20.70;45.60
76789;DHT22;65740;52.464;13.446;2023-04-29T01:22:20;20.70;45.50
76789;DHT22;65740;52.464;13.446;2023-04-29T01:24:47;20.60;45.50
76789;DHT22;65740;52.464;13.446;2023-04-29T01:27:33;20.60;45.50
76789;DHT22;65740;52.464;13.446;2023-04-29T01:33:06;20.60;45.60
76789;DHT22;65740;52.464;13.446;2023-04-29T01:35:44;20.60;45.70
76789;DHT22;65740;52.464;13.446;2023-04-29T01:41:52;20.60;45.80
76789;DHT22;65740;52.464;13.446;2023-04-29T01:43:58;20.60;45.80
76789;DHT22;65740;52.464;13.446;2023-04-29T01:46:26;20.60;45.70
76789;DHT22;65740;52.464;13.446;2023-04-29T01:48:53;20.50;45.70
76789;DHT22;65740;52.464;13.446;2023-04-29T01:51:19;20.50;45.60
76789;DHT22;65740;52.464;13.446;2023-04-29T01:53:45;20.50;45.70
76789;DHT22;65740;52.464;13.446;2023-04-29T01:56:10;20.50;45.70
76789;DHT22;65740;52.464;13.446;2023-04-29T01:58:36;20.50;45.70
76789;DHT22;65740;52.464;13.446;2023-04-29T02:01:02;20.50;45.70
76789;DHT22;65740;52.464;13.446;2023-04-29T02:03:27;20.50;45.70
76789;DHT22;65740;52.464;13.446;2023-04-29T02:05:53;20.40;45.60
76789;DHT22;65740;52.464;13.446;2023-04-29T02:08:18;20.40;45.60
76789;DHT22;65740;52.464;13.446;2023-04-29T02:10:54;20.40;45.60
76789;DHT22;65740;52.464;13.446;2023-04-29T02:13:20;20.40;45.50
76789;DHT22;65740;52.464;13.446;2023-04-29T02:15:46;20.40;45.60
76789;DHT22;65740;52.464;13.446;2023-04-29T02:18:11;20.40;45.60
76789;DHT22;65740;52.464;13.446;2023-04-29T02:20:37;20.40;45.50
76789;DHT22;65740;52.464;13.446;2023-04-29T02:23:02;20.40;45.50
76789;DHT22;65740;52.464;13.446;2023-04-29T02:25:28;20.40;45.50
76789;DHT22;65740;52.464;13.446;2023-04-29T02:27:54;20.40;45.50
76789;DHT22;65740;52.464;13.446;2023-04-29T02:30:19;20.40;45.40
76789;DHT22;65740;52.464;13.446;2023-04-29T02:32:45;20.50;45.40
76789;DHT22;65740;52.464;13.446;2023-04-29T02:35:10;20.50;45.40
76789;DHT22;65740;52.464;13.446;2023-04-29T02:37:37;20.50;45.30
76789;DHT22;65740;52.464;13.446;2023-04-29T02:40:03;20.50;45.20
76789;DHT22;65740;52.464;13.446;2023-04-29T02:42:28;20.50;45.20
76789;DHT22;65740;52.464;13.446;2023-04-29T02:44:54;20.50;45.20
76789;DHT22;65740;52.464;13.446;2023-04-29T02:47:19;20.50;45.20
76789;DHT22;65740;52.464;13.446;2023-04-29T02:49:45;20.50;45.90
76789;DHT22;65740;52.464;13.446;2023-04-29T02:52:11;20.50;45.20
76789;DHT22;65740;52.464;13.446;2023-04-29T02:54:37;20.50;45.20
76789;DHT22;65740;52.464;13.446;2023-04-29T02:57:02;20.50;45.20
76789;DHT22;65740;52.464;13.446;2023-04-29T02:59:28;20.50;45.20
76789;DHT22;65740;52.464;13.446;2023-04-29T03:01:53;20.50;45.30
76789;DHT22;65740;52.464;13.446;2023-04-29T03:04:19;20.40;45.20
76789;DHT22;65740;52.464;13.446;2023-04-29T03:06:45;20.40;45.30
76789;DHT22;65740;52.464;13.446;2023-04-29T03:09:11;20.40;45.30
76789;DHT22;65740;52.464;13.446;2023-04-29T03:11:37;20.30;45.20
76789;DHT22;65740;52.464;13.446;2023-04-29T03:14:03;20.30;45.30
76789;DHT22;65740;52.464;13.446;2023-04-29T03:16:29;20.30;45.30
76789;DHT22;65740;52.464;13.446;2023-04-29T03:18:56;20.30;45.30
76789;DHT22;65740;52.464;13.446;2023-04-29T03:21:22;20.30;45.30
76789;DHT22;65740;52.464;13.446;2023-04-29T03:23:49;20.30;45.30
76789;DHT22;65740;52.464;13.446;2023-04-29T03:26:15;20.30;45.30
76789;DHT22;65740;52.464;13.446;2023-04-29T03:28:41;20.30;45.30
76789;DHT22;65740;52.464;13.446;2023-04-29T03:31:07;20.30;45.40
76789;DHT22;65740;52.464;13.446;2023-04-29T03:33:32;20.30;45.30
76789;DHT22;65740;52.464;13.446;2023-04-29T03:35:58;20.30;45.30
76789;DHT22;65740;52.464;13.446;2023-04-29T03:38:24;20.20;45.30
76789;DHT22;65740;52.464;13.446;2023-04-29T03:40:50;20.30;45.40
76789;DHT22;65740;52.464;13.446;2023-04-29T03:43:16;20.20;45.30
76789;DHT22;65740;52.464;13.446;2023-04-29T03:45:42;20.30;45.30
76789;DHT22;65740;52.464;13.446;2023-04-29T03:48:08;20.20;45.30
76789;DHT22;65740;52.464;13.446;2023-04-29T03:50:34;20.20;45.30
76789;DHT22;65740;52.464;13.446;2023-04-29T03:53:01;20.20;45.30
76789;DHT22;65740;52.464;13.446;2023-04-29T03:55:26;20.20;45.20
76789;DHT22;65740;52.464;13.446;2023-04-29T03:57:52;20.20;45.20
76789;DHT22;65740;52.464;13.446;2023-04-29T04:00:18;20.30;45.20
76789;DHT22;65740;52.464;13.446;2023-04-29T04:02:43;20.30;45.10
76789;DHT22;65740;52.464;13.446;2023-04-29T04:05:09;20.30;45.00
76789;DHT22;65740;52.464;13.446;2023-04-29T04:07:35;20.30;45.00
76789;DHT22;65740;52.464;13.446;2023-04-29T04:10:01;20.30;45.00
76789;DHT22;65740;52.464;13.446;2023-04-29T04:12:26;20.30;45.60
76789;DHT22;65740;52.464;13.446;2023-04-29T04:14:52;20.30;44.90
76789;DHT22;65740;52.464;13.446;2023-04-29T04:17:18;20.30;44.90
76789;DHT22;65740;52.464;13.446;2023-04-29T04:19:43;20.40;45.00
76789;DHT22;65740;52.464;13.446;2023-04-29T04:22:09;20.30;44.90
76789;DHT22;65740;52.464;13.446;2023-04-29T04:24:36;20.30;44.90
76789;DHT22;65740;52.464;13.446;2023-04-29T04:27:01;20.30;44.80
76789;DHT22;65740;52.464;13.446;2023-04-29T04:29:27;20.30;44.80
76789;DHT22;65740;52.464;13.446;2023-04-29T04:31:53;20.30;44.80
76789;DHT22;65740;52.464;13.446;2023-04-29T04:34:19;20.30;44.80
76789;DHT22;65740;52.464;13.446;2023-04-29T04:36:44;20.30;44.90
76789;DHT22;65740;52.464;13.446;2023-04-29T04:39:10;20.30;44.90
76789;DHT22;65740;52.464;13.446;2023-04-29T04:41:36;20.30;44.90
76789;DHT22;65740;52.464;13.446;2023-04-29T04:44:02;20.20;44.90
76789;DHT22;65740;52.464;13.446;2023-04-29T04:46:28;20.20;45.00
76789;DHT22;65740;52.464;13.446;2023-04-29T04:48:54;20.20;45.00
76789;DHT22;65740;52.464;13.446;2023-04-29T04:51:19;20.20;45.00
76789;DHT22;65740;52.464;13.446;2023-04-29T04:53:45;20.20;45.00
76789;DHT22;65740;52.464;13.446;2023-04-29T04:56:11;20.20;45.00
76789;DHT22;65740;52.464;13.446;2023-04-29T04:58:36;20.20;45.00
76789;DHT22;65740;52.464;13.446;2023-04-29T05:01:02;20.20;45.10
76789;DHT22;65740;52.464;13.446;2023-04-29T05:03:27;20.20;45.10
76789;DHT22;65740;52.464;13.446;2023-04-29T05:05:57;20.10;45.00
76789;DHT22;65740;52.464;13.446;2023-04-29T05:08:23;20.10;45.00
76789;DHT22;65740;52.464;13.446;2023-04-29T05:10:49;20.10;45.00
76789;DHT22;65740;52.464;13.446;2023-04-29T05:13:16;20.10;45.10
76789;DHT22;65740;52.464;13.446;2023-04-29T05:15:42;20.10;45.10
76789;DHT22;65740;52.464;13.446;2023-04-29T05:18:09;20.10;45.10
76789;DHT22;65740;52.464;13.446;2023-04-29T05:20:34;20.10;45.10
76789;DHT22;65740;52.464;13.446;2023-04-29T05:23:00;20.10;45.10
76789;DHT22;65740;52.464;13.446;2023-04-29T05:25:26;20.10;45.10
76789;DHT22;65740;52.464;13.446;2023-04-29T05:27:51;20.10;45.10
76789;DHT22;65740;52.464;13.446;2023-04-29T05:30:18;20.10;45.00
76789;DHT22;65740;52.464;13.446;2023-04-29T05:32:43;20.20;45.00
76789;DHT22;65740;52.464;13.446;2023-04-29T05:35:13;20.20;45.00
76789;DHT22;65740;52.464;13.446;2023-04-29T05:37:40;20.20;44.90
76789;DHT22;65740;52.464;13.446;2023-04-29T05:40:06;20.20;44.90
76789;DHT22;65740;52.464;13.446;2023-04-29T05:42:32;20.20;44.90
76789;DHT22;65740;52.464;13.446;2023-04-29T05:44:57;20.20;44.90
76789;DHT22;65740;52.464;13.446;2023-04-29T05:47:23;20.20;44.90
76789;DHT22;65740;52.464;13.446;2023-04-29T05:49:49;20.20;44.90
76789;DHT22;65740;52.464;13.446;2023-04-29T05:52:14;20.20;44.90
76789;DHT22;65740;52.464;13.446;2023-04-29T05:54:40;20.20;44.80
76789;DHT22;65740;52.464;13.446;2023-04-29T05:57:08;20.20;44.80
76789;DHT22;65740;52.464;13.446;2023-04-29T05:59:34;20.20;44.90
76789;DHT22;65740;52.464;13.446;2023-04-29T06:02:00;20.10;44.80
76789;DHT22;65740;52.464;13.446;2023-04-29T06:04:26;20.10;44.80
76789;DHT22;65740;52.464;13.446;2023-04-29T06:06:53;20.20;44.90
76789;DHT22;65740;52.464;13.446;2023-04-29T06:09:21;20.10;44.90
76789;DHT22;65740;52.464;13.446;2023-04-29T06:11:46;20.10;44.90
76789;DHT22;65740;52.464;13.446;2023-04-29T06:14:12;20.10;44.90
76789;DHT22;65740;52.464;13.446;2023-04-29T06:16:39;20.10;44.90
76789;DHT22;65740;52.464;13.446;2023-04-29T06:19:05;20.10;45.00
76789;DHT22;65740;52.464;13.446;2023-04-29T06:21:30;20.10;45.00
76789;DHT22;65740;52.464;13.446;2023-04-29T06:23:56;20.00;45.00
76789;DHT22;65740;52.464;13.446;2023-04-29T06:26:22;20.00;45.00
76789;DHT22;65740;52.464;13.446;2023-04-29T06:28:48;20.00;45.00
76789;DHT22;65740;52.464;13.446;2023-04-29T06:31:14;20.10;45.10
76789;DHT22;65740;52.464;13.446;2023-04-29T06:33:40;20.00;45.00
76789;DHT22;65740;52.464;13.446;2023-04-29T06:36:05;20.00;45.00
76789;DHT22;65740;52.464;13.446;2023-04-29T06:38:31;20.00;45.00
76789;DHT22;65740;52.464;13.446;2023-04-29T06:40:57;20.00;45.10
76789;DHT22;65740;52.464;13.446;2023-04-29T06:43:26;20.00;45.10
76789;DHT22;65740;52.464;13.446;2023-04-29T06:45:52;20.00;45.00
76789;DHT22;65740;52.464;13.446;2023-04-29T06:48:17;20.00;45.10
76789;DHT22;65740;52.464;13.446;2023-04-29T06:50:54;20.00;45.10
76789;DHT22;65740;52.464;13.446;2023-04-29T06:53:20;20.00;45.00
76789;DHT22;65740;52.464;13.446;2023-04-29T06:55:46;20.00;45.00
76789;DHT22;65740;52.464;13.446;2023-04-29T06:58:15;20.10;45.00
76789;DHT22;65740;52.464;13.446;2023-04-29T07:00:45;20.10;45.00
76789;DHT22;65740;52.464;13.446;2023-04-29T07:03:12;20.10;45.00
76789;DHT22;65740;52.464;13.446;2023-04-29T07:05:38;20.10;44.90
76789;DHT22;65740;52.464;13.446;2023-04-29T07:08:07;20.10;45.00
76789;DHT22;65740;52.464;13.446;2023-04-29T07:10:33;20.10;44.90
76789;DHT22;65740;52.464;13.446;2023-04-29T07:12:58;20.10;44.90
76789;DHT22;65740;52.464;13.446;2023-04-29T07:15:25;20.10;44.80
76789;DHT22;65740;52.464;13.446;2023-04-29T07:17:51;20.10;44.80
76789;DHT22;65740;52.464;13.446;2023-04-29T07:20:16;20.20;44.90
76789;DHT22;65740;52.464;13.446;2023-04-29T07:22:42;20.20;44.90
76789;DHT22;65740;52.464;13.446;2023-04-29T07:25:08;20.20;44.90
76789;DHT22;65740;52.464;13.446;2023-04-29T07:27:35;20.10;44.80
76789;DHT22;65740;52.464;13.446;2023-04-29T07:30:01;20.10;44.80
76789;DHT22;65740;52.464;13.446;2023-04-29T07:32:27;20.20;44.90
76789;DHT22;65740;52.464;13.446;2023-04-29T07:34:53;20.20;44.80
76789;DHT22;65740;52.464;13.446;2023-04-29T07:37:19;20.20;44.90
76789;DHT22;65740;52.464;13.446;2023-04-29T07:39:44;20.20;44.90
76789;DHT22;65740;52.464;13.446;2023-04-29T07:42:10;20.20;44.80
76789;DHT22;65740;52.464;13.446;2023-04-29T07:44:36;20.20;45.50
76789;DHT22;65740;52.464;13.446;2023-04-29T07:47:01;20.20;44.90
76789;DHT22;65740;52.464;13.446;2023-04-29T07:49:27;20.20;44.90
76789;DHT22;65740;52.464;13.446;2023-04-29T07:51:52;20.20;44.90
76789;DHT22;65740;52.464;13.446;2023-04-29T07:54:18;20.20;44.90
76789;DHT22;65740;52.464;13.446;2023-04-29T07:56:44;20.20;44.90
76789;DHT22;65740;52.464;13.446;2023-04-29T07:59:10;20.20;44.90
76789;DHT22;65740;52.464;13.446;2023-04-29T08:01:36;20.20;45.00
76789;DHT22;65740;52.464;13.446;2023-04-29T08:04:02;20.10;45.00
76789;DHT22;65740;52.464;13.446;2023-04-29T08:06:28;20.10;45.00
76789;DHT22;65740;52.464;13.446;2023-04-29T08:08:55;20.10;45.00
76789;DHT22;65740;52.464;13.446;2023-04-29T08:11:21;20.10;45.10
76789;DHT22;65740;52.464;13.446;2023-04-29T08:13:49;20.10;45.10
76789;DHT22;65740;52.464;13.446;2023-04-29T08:16:15;20.10;45.20
76789;DHT22;65740;52.464;13.446;2023-04-29T08:18:40;20.10;45.20
76789;DHT22;65740;52.464;13.446;2023-04-29T08:21:06;20.00;45.10
76789;DHT22;65740;52.464;13.446;2023-04-29T08:23:33;20.00;45.20
76789;DHT22;65740;52.464;13.446;2023-04-29T08:25:59;20.00;45.20
76789;DHT22;65740;52.464;13.446;2023-04-29T08:28:25;20.00;45.20
76789;DHT22;65740;52.464;13.446;2023-04-29T08:30:52;20.00;45.20
76789;DHT22;65740;52.464;13.446;2023-04-29T08:33:18;20.00;45.20
76789;DHT22;65740;52.464;13.446;2023-04-29T08:35:56;20.10;45.30
76789;DHT22;65740;52.464;13.446;2023-04-29T08:38:27;20.10;45.20
76789;DHT22;65740;52.464;13.446;2023-04-29T08:40:53;20.10;45.10
76789;DHT22;65740;52.464;13.446;2023-04-29T08:43:20;20.10;45.10
76789;DHT22;65740;52.464;13.446;2023-04-29T08:45:47;20.10;45.00
76789;DHT22;65740;52.464;13.446;2023-04-29T08:48:14;20.10;45.00
76789;DHT22;65740;52.464;13.446;2023-04-29T08:50:41;20.20;45.10
76789;DHT22;65740;52.464;13.446;2023-04-29T08:53:07;20.20;45.10
76789;DHT22;65740;52.464;13.446;2023-04-29T08:55:44;20.20;45.10
76789;DHT22;65740;52.464;13.446;2023-04-29T08:58:11;20.20;45.10
76789;DHT22;65740;52.464;13.446;2023-04-29T09:00:38;20.20;45.10
76789;DHT22;65740;52.464;13.446;2023-04-29T09:05:37;20.20;45.10
76789;DHT22;65740;52.464;13.446;2023-04-29T09:08:07;20.20;45.70
76789;DHT22;65740;52.464;13.446;2023-04-29T09:10:35;20.20;45.10
76789;DHT22;65740;52.464;13.446;2023-04-29T09:13:01;20.20;45.10
76789;DHT22;65740;52.464;13.446;2023-04-29T09:15:27;20.20;45.10
76789;DHT22;65740;52.464;13.446;2023-04-29T09:17:53;20.20;45.10
76789;DHT22;65740;52.464;13.446;2023-04-29T09:22:55;20.20;45.20
76789;DHT22;65740;52.464;13.446;2023-04-29T09:25:21;20.10;45.20
76789;DHT22;65740;52.464;13.446;2023-04-29T09:27:47;20.10;45.30
76789;DHT22;65740;52.464;13.446;2023-04-29T09:30:13;20.10;45.30
76789;DHT22;65740;52.464;13.446;2023-04-29T09:32:41;20.00;45.30
76789;DHT22;65740;52.464;13.446;2023-04-29T09:35:25;20.00;45.40
76789;DHT22;65740;52.464;13.446;2023-04-29T09:37:52;20.00;45.40
76789;DHT22;65740;52.464;13.446;2023-04-29T09:40:28;20.00;45.40
76789;DHT22;65740;52.464;13.446;2023-04-29T09:42:55;20.00;45.50
76789;DHT22;65740;52.464;13.446;2023-04-29T09:45:37;20.00;45.40
76789;DHT22;65740;52.464;13.446;2023-04-29T09:48:07;20.00;45.40
76789;DHT22;65740;52.464;13.446;2023-04-29T09:50:36;20.00;45.50
76789;DHT22;65740;52.464;13.446;2023-04-29T09:53:02;20.00;45.40
76789;DHT22;65740;52.464;13.446;2023-04-29T09:55:28;20.00;45.40
76789;DHT22;65740;52.464;13.446;2023-04-29T09:57:57;20.10;45.40
76789;DHT22;65740;52.464;13.446;2023-04-29T10:00:23;20.10;45.30
76789;DHT22;65740;52.464;13.446;2023-04-29T10:02:50;20.10;45.30
76789;DHT22;65740;52.464;13.446;2023-04-29T10:05:18;20.10;45.20
76789;DHT22;65740;52.464;13.446;2023-04-29T10:07:45;20.20;45.30
76789;DHT22;65740;52.464;13.446;2023-04-29T10:10:12;20.10;45.20
76789;DHT22;65740;52.464;13.446;2023-04-29T10:12:39;20.10;45.20
76789;DHT22;65740;52.464;13.446;2023-04-29T10:18:34;20.10;45.20
76789;DHT22;65740;52.464;13.446;2023-04-29T10:21:02;20.10;45.20
76789;DHT22;65740;52.464;13.446;2023-04-29T10:23:32;20.10;45.20
76789;DHT22;65740;52.464;13.446;2023-04-29T10:25:58;20.20;45.30
76789;DHT22;65740;52.464;13.446;2023-04-29T10:28:26;20.10;45.30
76789;DHT22;65740;52.464;13.446;2023-04-29T10:30:55;20.10;45.30
76789;DHT22;65740;52.464;13.446;2023-04-29T10:33:22;20.10;45.40
76789;DHT22;65740;52.464;13.446;2023-04-29T10:35:48;20.10;45.50
76789;DHT22;65740;52.464;13.446;2023-04-29T10:38:41;20.00;45.40
76789;DHT22;65740;52.464;13.446;2023-04-29T10:41:26;20.00;45.40
76789;DHT22;65740;52.464;13.446;2023-04-29T10:43:54;20.00;45.50
76789;DHT22;65740;52.464;13.446;2023-04-29T10:46:22;20.00;45.50
76789;DHT22;65740;52.464;13.446;2023-04-29T10:49:02;20.00;45.50
76789;DHT22;65740;52.464;13.446;2023-04-29T10:51:28;20.00;45.50
76789;DHT22;65740;52.464;13.446;2023-04-29T10:54:00;20.00;45.50
76789;DHT22;65740;52.464;13.446;2023-04-29T10:56:51;20.00;45.60
76789;DHT22;65740;52.464;13.446;2023-04-29T10:59:21;19.90;45.50
76789;DHT22;65740;52.464;13.446;2023-04-29T11:01:50;20.00;46.20
76789;DHT22;65740;52.464;13.446;2023-04-29T11:04:18;20.00;45.50
76789;DHT22;65740;52.464;13.446;2023-04-29T11:06:46;20.00;45.50
76789;DHT22;65740;52.464;13.446;2023-04-29T11:09:19;20.00;45.70
76789;DHT22;65740;52.464;13.446;2023-04-29T11:11:55;20.00;45.40
76789;DHT22;65740;52.464;13.446;2023-04-29T11:17:18;20.10;45.30
76789;DHT22;65740;52.464;13.446;2023-04-29T11:19:46;20.10;45.30
76789;DHT22;65740;52.464;13.446;2023-04-29T11:24:59;20.10;45.20
76789;DHT22;65740;52.464;13.446;2023-04-29T11:27:30;20.10;45.20
76789;DHT22;65740;52.464;13.446;2023-04-29T11:29:57;20.10;45.20
76789;DHT22;65740;52.464;13.446;2023-04-29T11:32:27;20.10;45.10
76789;DHT22;65740;52.464;13.446;2023-04-29T11:34:54;20.20;45.20
76789;DHT22;65740;52.464;13.446;2023-04-29T11:37:24;20.20;45.20
76789;DHT22;65740;52.464;13.446;2023-04-29T11:40:00;20.20;45.20
76789;DHT22;65740;52.464;13.446;2023-04-29T11:42:26;20.20;45.90
76789;DHT22;65740;52.464;13.446;2023-04-29T11:44:56;20.20;45.20
76789;DHT22;65740;52.464;13.446;2023-04-29T11:47:26;20.20;45.10
76789;DHT22;65740;52.464;13.446;2023-04-29T11:49:53;20.20;45.10
76789;DHT22;65740;52.464;13.446;2023-04-29T11:52:19;20.20;45.10
76789;DHT22;65740;52.464;13.446;2023-04-29T11:54:46;20.20;45.10
76789;DHT22;65740;52.464;13.446;2023-04-29T11:57:12;20.20;45.10
76789;DHT22;65740;52.464;13.446;2023-04-29T11:59:38;20.20;45.30
76789;DHT22;65740;52.464;13.446;2023-04-29T12:02:10;20.20;45.30
76789;DHT22;65740;52.464;13.446;2023-04-29T12:04:47;20.20;45.30
76789;DHT22;65740;52.464;13.446;2023-04-29T12:07:16;20.10;45.30
76789;DHT22;65740;52.464;13.446;2023-04-29T12:09:42;20.20;45.40
76789;DHT22;65740;52.464;13.446;2023-04-29T12:12:09;20.10;45.40
76789;DHT22;65740;52.464;13.446;2023-04-29T12:14:35;20.10;45.40
76789;DHT22;65740;52.464;13.446;2023-04-29T12:17:03;20.10;45.40
76789;DHT22;65740;52.464;13.446;2023-04-29T12:19:29;20.10;45.50
76789;DHT22;65740;52.464;13.446;2023-04-29T12:21:59;20.10;45.50
76789;DHT22;65740;52.464;13.446;2023-04-29T12:24:25;20.10;45.60
76789;DHT22;65740;52.464;13.446;2023-04-29T12:26:51;20.10;45.50
76789;DHT22;65740;52.464;13.446;2023-04-29T12:29:20;20.00;45.40
76789;DHT22;65740;52.464;13.446;2023-04-29T12:31:47;20.00;45.50
76789;DHT22;65740;52.464;13.446;2023-04-29T12:34:13;20.00;45.50
76789;DHT22;65740;52.464;13.446;2023-04-29T12:36:42;20.00;45.60
76789;DHT22;65740;52.464;13.446;2023-04-29T12:39:09;20.00;45.60
76789;DHT22;65740;52.464;13.446;2023-04-29T12:41:41;20.00;45.60
76789;DHT22;65740;52.464;13.446;2023-04-29T12:44:07;20.00;46.30
76789;DHT22;65740;52.464;13.446;2023-04-29T12:46:40;20.00;45.70
76789;DHT22;65740;52.464;13.446;2023-04-29T12:49:06;20.00;45.70
76789;DHT22;65740;52.464;13.446;2023-04-29T12:51:33;20.00;45.70
76789;DHT22;65740;52.464;13.446;2023-04-29T12:54:01;20.00;46.40
76789;DHT22;65740;52.464;13.446;2023-04-29T12:56:28;20.00;45.70
76789;DHT22;65740;52.464;13.446;2023-04-29T12:58:54;20.00;45.70
76789;DHT22;65740;52.464;13.446;2023-04-29T13:01:19;20.00;45.60
76789;DHT22;65740;52.464;13.446;2023-04-29T13:03:45;20.10;45.70
76789;DHT22;65740;52.464;13.446;2023-04-29T13:06:11;20.10;46.20
76789;DHT22;65740;52.464;13.446;2023-04-29T13:08:36;20.10;45.50
76789;DHT22;65740;52.464;13.446;2023-04-29T13:11:02;20.20;45.60
76789;DHT22;65740;52.464;13.446;2023-04-29T13:13:27;20.20;45.50
76789;DHT22;65740;52.464;13.446;2023-04-29T13:15:53;20.20;45.50
76789;DHT22;65740;52.464;13.446;2023-04-29T13:18:19;20.20;45.40
76789;DHT22;65740;52.464;13.446;2023-04-29T13:20:44;20.20;45.40
76789;DHT22;65740;52.464;13.446;2023-04-29T13:23:10;20.30;45.50
76789;DHT22;65740;52.464;13.446;2023-04-29T13:25:38;20.30;45.50
76789;DHT22;65740;52.464;13.446;2023-04-29T13:28:04;20.30;45.50
76789;DHT22;65740;52.464;13.446;2023-04-29T13:30:30;20.20;45.40
76789;DHT22;65740;52.464;13.446;2023-04-29T13:32:56;20.30;45.40
76789;DHT22;65740;52.464;13.446;2023-04-29T13:35:21;20.30;45.40
76789;DHT22;65740;52.464;13.446;2023-04-29T13:37:47;20.30;45.40
76789;DHT22;65740;52.464;13.446;2023-04-29T13:40:13;20.30;45.40
76789;DHT22;65740;52.464;13.446;2023-04-29T13:42:39;20.30;45.40
76789;DHT22;65740;52.464;13.446;2023-04-29T13:45:05;20.30;45.50
76789;DHT22;65740;52.464;13.446;2023-04-29T13:47:30;20.30;45.50
76789;DHT22;65740;52.464;13.446;2023-04-29T13:49:56;20.30;45.40
76789;DHT22;65740;52.464;13.446;2023-04-29T13:52:22;20.30;45.50
76789;DHT22;65740;52.464;13.446;2023-04-29T13:54:47;20.30;45.60
76789;DHT22;65740;52.464;13.446;2023-04-29T13:57:13;20.30;45.60
76789;DHT22;65740;52.464;13.446;2023-04-29T13:59:39;20.30;45.70
76789;DHT22;65740;52.464;13.446;2023-04-29T14:02:05;20.30;45.70
76789;DHT22;65740;52.464;13.446;2023-04-29T14:04:31;20.30;45.70
76789;DHT22;65740;52.464;13.446;2023-04-29T14:06:56;20.30;45.80
76789;DHT22;65740;52.464;13.446;2023-04-29T14:09:22;20.30;45.80
76789;DHT22;65740;52.464;13.446;2023-04-29T14:11:48;20.20;45.80
76789;DHT22;65740;52.464;13.446;2023-04-29T14:14:14;20.30;45.80
76789;DHT22;65740;52.464;13.446;2023-04-29T14:16:40;20.30;45.80
76789;DHT22;65740;52.464;13.446;2023-04-29T14:19:06;20.20;45.90
76789;DHT22;65740;52.464;13.446;2023-04-29T14:21:32;20.30;46.00
76789;DHT22;65740;52.464;13.446;2023-04-29T14:23:59;20.30;46.00
76789;DHT22;65740;52.464;13.446;2023-04-29T14:26:26;20.20;46.00
76789;DHT22;65740;52.464;13.446;2023-04-29T14:28:53;20.20;46.00
76789;DHT22;65740;52.464;13.446;2023-04-29T14:31:33;20.30;46.10
76789;DHT22;65740;52.464;13.446;2023-04-29T14:34:06;20.30;46.10
76789;DHT22;65740;52.464;13.446;2023-04-29T14:36:31;20.20;45.90
76789;DHT22;65740;52.464;13.446;2023-04-29T14:38:58;20.30;45.90
76789;DHT22;65740;52.464;13.446;2023-04-29T14:41:23;20.30;45.90
76789;DHT22;65740;52.464;13.446;2023-04-29T14:43:49;20.40;45.90
76789;DHT22;65740;52.464;13.446;2023-04-29T14:46:15;20.40;45.80
76789;DHT22;65740;52.464;13.446;2023-04-29T14:48:41;20.40;45.80
76789;DHT22;65740;52.464;13.446;2023-04-29T14:51:07;20.40;45.70
76789;DHT22;65740;52.464;13.446;2023-04-29T14:53:32;20.50;45.80
76789;DHT22;65740;52.464;13.446;2023-04-29T14:55:58;20.50;45.80
76789;DHT22;65740;52.464;13.446;2023-04-29T14:58:24;20.50;45.80
76789;DHT22;65740;52.464;13.446;2023-04-29T15:00:50;20.50;45.80
76789;DHT22;65740;52.464;13.446;2023-04-29T15:03:16;20.50;45.80
76789;DHT22;65740;52.464;13.446;2023-04-29T15:05:42;20.50;45.80
76789;DHT22;65740;52.464;13.446;2023-04-29T15:08:09;20.50;45.80
76789;DHT22;65740;52.464;13.446;2023-04-29T15:10:34;20.50;45.80
76789;DHT22;65740;52.464;13.446;2023-04-29T15:13:01;20.60;45.90
76789;DHT22;65740;52.464;13.446;2023-04-29T15:15:27;20.60;45.80
76789;DHT22;65740;52.464;13.446;2023-04-29T15:17:53;20.60;45.90
76789;DHT22;65740;52.464;13.446;2023-04-29T15:20:19;20.60;45.90
76789;DHT22;65740;52.464;13.446;2023-04-29T15:22:45;20.60;45.90
76789;DHT22;65740;52.464;13.446;2023-04-29T15:25:11;20.60;46.00
76789;DHT22;65740;52.464;13.446;2023-04-29T15:27:37;20.60;45.90
76789;DHT22;65740;52.464;13.446;2023-04-29T15:30:04;20.60;46.00
76789;DHT22;65740;52.464;13.446;2023-04-29T15:32:30;20.60;46.10
76789;DHT22;65740;52.464;13.446;2023-04-29T15:35:00;20.60;46.20
76789;DHT22;65740;52.464;13.446;2023-04-29T15:37:26;20.60;46.20
76789;DHT22;65740;52.464;13.446;2023-04-29T15:39:53;20.50;46.20